Etusivu
METAR-TAF:

METAR-TAF

Lentoasemat :

Monastir, Tunisia

Leveyspiiri: 35-46N, Pituuspiiri: 010-45E, korkeus merenpinnasta: 2 m

Tämänhetkinen sää

Tämä raportti tehtiin 38 minuuttia sitten, kello 04.00 UTC
Tuuli 9 kn pohjoisesta
Lämpötila 20°C
Kosteus 88%
Ilmanpaine 1014 hPa
Näkyvyys 10 km tai enemmän
Hajanaisia pilviä 2600 ft:n korkeudessa

METAR: DTMB 310400Z 01009KT 9999 SCT026 20/18 Q1014

Aika: 05:38 (04:38 UTC)

Sääennuste

Tämä raportti tehtiin 5 tuntia ja 38 minuuttia sitten, kello 23.00 UTC
Ennuste voimassa 31. päivästä klo 00 UTC - 31. päivään klo 24 UTC
Tuuli 10 kn pohjoisen/luoteesta
Näkyvyys 10 km tai enemmän
Muutamia pilviä 3000 ft:n korkeudessa
Tulossa
31. päivästä klo 10 UTC - 31. päivään klo 12 UTC
Tuuli 10 kn koillisesta
Tulossa
31. päivästä klo 19 UTC - 31. päivään klo 21 UTC
Tuuli 3 kn idästä

TAF: DTMB 302300Z 3100/3124 34010KT 9999 FEW030 BECMG 3110/3112 04010KT BECMG 3119/3121 10003KT

Säähavainnot ja -ennusteet yli 4000 lentoasemalta (METAR- ja TAF-raportit).

Käytössä olevat sääasemat on merkitty karttaan keltaisilla ja punaisilla pisteillä.

Aseta hiiri pisteen päälle nähdäksesi sääaseman nimen.

Klikkaa sitten nähdäksesi säähavainnot ja -ennusteet.

Kartan vaihtaminen: klikkaa mustalla rastilla varustettuja vihreitä pisteitä, niin voit zoomata sisään; viivalla varustettua vihreää pistettä, niin voit zoomata ulos tai vihreitä nuolia, niin pääset viereisille kartoille.


METAR-TAF: